createdAt,value
2023-03-03T00:03:10.674Z,987.2
2023-03-03T00:05:12.314Z,987.2
2023-03-03T00:07:13.855Z,987.1
2023-03-03T00:09:15.629Z,987.1
2023-03-03T00:13:19.000Z,987.1
2023-03-03T00:15:20.942Z,987.2
2023-03-03T00:17:22.148Z,987.1
2023-03-03T00:19:23.268Z,987.2
2023-03-03T00:21:24.790Z,987.1
2023-03-03T00:23:26.758Z,987.1
2023-03-03T00:25:27.898Z,987.3
2023-03-03T00:27:29.656Z,987.2
2023-03-03T00:29:31.587Z,987.3
2023-03-03T00:31:33.218Z,987.2
2023-03-03T00:33:34.576Z,987.2
2023-03-03T00:35:36.661Z,987.2
2023-03-03T00:37:38.316Z,987.3
2023-03-03T00:39:40.019Z,987.3
2023-03-03T00:41:42.006Z,987.3
2023-03-03T00:45:45.098Z,987.3
2023-03-03T00:47:46.353Z,987.3
2023-03-03T00:49:47.549Z,987.3
2023-03-03T00:51:48.946Z,987.2
2023-03-03T00:55:52.220Z,987.2
2023-03-03T00:57:53.789Z,987.2
2023-03-03T00:59:55.266Z,987.1
2023-03-03T01:01:57.039Z,987.2
2023-03-03T01:03:58.725Z,987.3
2023-03-03T01:05:59.873Z,987.4
2023-03-03T01:08:01.371Z,987.3
2023-03-03T01:10:03.114Z,987.3
2023-03-03T01:12:04.399Z,987.2
2023-03-03T01:14:06.374Z,987.3
2023-03-03T01:16:07.853Z,987.2
2023-03-03T01:18:09.322Z,987.3
2023-03-03T01:20:10.913Z,987.3
2023-03-03T01:22:12.347Z,987.3
2023-03-03T01:24:13.828Z,987.2
2023-03-03T01:28:17.241Z,987.2
2023-03-03T01:30:18.843Z,987.2
2023-03-03T01:32:20.772Z,987.2
2023-03-03T01:34:22.381Z,987.1
2023-03-03T01:38:25.267Z,987.2
2023-03-03T01:40:26.338Z,987.3
2023-03-03T01:42:27.752Z,987.2
2023-03-03T01:44:29.237Z,987.3
2023-03-03T01:46:31.362Z,987.2
2023-03-03T01:48:32.758Z,987.1
2023-03-03T01:50:34.879Z,987.2
2023-03-03T01:52:36.671Z,987.2
2023-03-03T01:54:38.435Z,987.3
2023-03-03T01:56:39.889Z,987.2
2023-03-03T01:58:41.238Z,987.3
2023-03-03T02:00:42.995Z,987.2
2023-03-03T02:02:44.191Z,987.1
2023-03-03T02:04:45.645Z,987.1
2023-03-03T02:06:47.384Z,987.1
2023-03-03T02:08:48.695Z,987.1
2023-03-03T02:10:50.130Z,987.1
2023-03-03T02:12:51.930Z,987.1
2023-03-03T02:14:53.193Z,987
2023-03-03T02:16:54.437Z,987
2023-03-03T02:18:56.234Z,987.1
2023-03-03T02:20:57.783Z,987.1
2023-03-03T02:22:59.046Z,987.1
2023-03-03T02:27:02.725Z,987
2023-03-03T02:29:03.887Z,987.1
2023-03-03T02:31:05.949Z,987
2023-03-03T02:33:07.651Z,987
2023-03-03T02:35:09.368Z,987
2023-03-03T02:37:10.614Z,987.1
2023-03-03T02:39:12.523Z,987
2023-03-03T02:41:13.691Z,987.1
2023-03-03T02:43:15.107Z,987.1
2023-03-03T02:45:16.645Z,987.1
2023-03-03T02:47:18.620Z,987.1
2023-03-03T02:49:20.543Z,987.1
2023-03-03T02:51:22.634Z,987.2
2023-03-03T02:53:24.601Z,987.1
2023-03-03T02:55:26.514Z,987.1
2023-03-03T02:57:28.251Z,987.2
2023-03-03T02:59:30.064Z,987.2
2023-03-03T03:03:32.776Z,987
2023-03-03T03:05:33.960Z,987.1
2023-03-03T03:09:36.983Z,987.2
2023-03-03T03:11:38.573Z,987.1
2023-03-03T03:13:40.579Z,987.2
2023-03-03T03:15:41.747Z,987.3
2023-03-03T03:17:43.779Z,987.2
2023-03-03T03:19:45.100Z,987.3
2023-03-03T03:21:46.619Z,987.2
2023-03-03T03:23:48.113Z,987.2
2023-03-03T03:25:49.851Z,987.2
2023-03-03T03:27:51.077Z,987.2
2023-03-03T03:29:52.319Z,987.2
2023-03-03T03:31:53.930Z,987.2
2023-03-03T03:33:55.735Z,987.3
2023-03-03T03:35:57.003Z,987.4
2023-03-03T03:37:58.479Z,987.3
2023-03-03T03:39:59.963Z,987.3
2023-03-03T03:42:01.471Z,987.4
2023-03-03T03:44:02.941Z,987.2
2023-03-03T03:46:04.227Z,987.4
2023-03-03T03:48:05.488Z,987.3
2023-03-03T03:50:06.652Z,987.4
2023-03-03T03:52:08.693Z,987.3
2023-03-03T03:54:09.974Z,987.4
2023-03-03T03:56:11.999Z,987.4
2023-03-03T03:58:13.455Z,987.3
2023-03-03T04:00:14.930Z,987.3
2023-03-03T04:02:16.517Z,987.4
2023-03-03T04:04:18.311Z,987.2
2023-03-03T04:08:21.400Z,987.2
2023-03-03T04:10:22.977Z,987.3
2023-03-03T04:12:25.057Z,987.3
2023-03-03T04:14:26.900Z,987.4
2023-03-03T04:16:28.084Z,987.3
2023-03-03T04:18:29.258Z,987.4
2023-03-03T04:20:31.078Z,987.4
2023-03-03T04:22:33.121Z,987.3
2023-03-03T04:24:35.201Z,987.5
2023-03-03T04:26:36.704Z,987.4
2023-03-03T04:28:37.882Z,987.4
2023-03-03T04:30:39.597Z,987.3
2023-03-03T04:32:41.193Z,987.4
2023-03-03T04:34:43.249Z,987.4
2023-03-03T04:36:44.810Z,987.4
2023-03-03T04:38:46.001Z,987.6
2023-03-03T04:40:47.695Z,987.4
2023-03-03T04:42:48.929Z,987.5
2023-03-03T04:44:50.080Z,987.6
2023-03-03T04:46:51.906Z,987.6
2023-03-03T04:50:54.783Z,987.6
2023-03-03T04:52:56.673Z,987.6
2023-03-03T04:54:57.981Z,987.5
2023-03-03T04:56:59.835Z,987.5
2023-03-03T04:59:01.122Z,987.5
2023-03-03T05:01:03.164Z,987.5
2023-03-03T05:03:04.918Z,987.5
2023-03-03T05:05:06.944Z,987.4
2023-03-03T05:07:08.862Z,987.5
2023-03-03T05:09:10.148Z,987.6
2023-03-03T05:11:11.423Z,987.6
2023-03-03T05:13:13.147Z,987.6
2023-03-03T05:15:14.700Z,987.7
2023-03-03T05:17:16.754Z,987.7
2023-03-03T05:19:18.393Z,987.7
2023-03-03T05:21:19.529Z,987.6
2023-03-03T05:23:21.222Z,987.6
2023-03-03T05:25:22.286Z,987.6
2023-03-03T05:27:24.306Z,987.6
2023-03-03T05:29:26.065Z,987.6
2023-03-03T05:33:28.672Z,987.6
2023-03-03T05:35:30.204Z,987.6
2023-03-03T05:37:31.314Z,987.6
2023-03-03T05:39:33.333Z,987.6
2023-03-03T05:41:34.844Z,987.6
2023-03-03T05:43:36.765Z,987.7
2023-03-03T05:45:38.527Z,987.8
2023-03-03T05:47:39.765Z,987.8
2023-03-03T05:49:41.813Z,987.9
2023-03-03T05:51:43.313Z,987.8
2023-03-03T05:53:45.024Z,987.8
2023-03-03T05:55:46.177Z,987.8
2023-03-03T05:57:48.085Z,987.8
2023-03-03T05:59:49.613Z,987.8
2023-03-03T06:01:50.768Z,987.9
2023-03-03T06:03:51.910Z,987.9
2023-03-03T06:05:53.742Z,988
2023-03-03T06:07:54.989Z,987.9
2023-03-03T06:10:40.322Z,987.9
2023-03-03T06:12:41.554Z,987.9
2023-03-03T06:14:42.757Z,988
2023-03-03T06:16:44.197Z,988
2023-03-03T06:18:46.115Z,987.9
2023-03-03T06:20:47.923Z,988.1
2023-03-03T06:22:49.971Z,988.1
2023-03-03T06:24:51.475Z,988.2
2023-03-03T06:26:54.123Z,988.2
2023-03-03T06:28:55.225Z,988.2
2023-03-03T06:30:56.838Z,988.1
2023-03-03T06:32:58.765Z,988.2
2023-03-03T06:37:02.622Z,988.3
2023-03-03T06:39:04.562Z,988.3
2023-03-03T06:41:05.713Z,988.4
2023-03-03T06:43:06.939Z,988.3
2023-03-03T06:47:09.989Z,988.3
2023-03-03T06:49:11.090Z,988.3
2023-03-03T06:51:12.300Z,988.3
2023-03-03T06:53:13.418Z,988.3
2023-03-03T06:55:14.944Z,988.4
2023-03-03T06:57:16.528Z,988.3
2023-03-03T06:59:18.324Z,988.3
2023-03-03T07:01:19.874Z,988.4
2023-03-03T07:03:21.848Z,988.4
2023-03-03T07:05:23.832Z,988.3
2023-03-03T07:07:25.865Z,988.3
2023-03-03T07:09:27.720Z,988.4
2023-03-03T07:11:29.194Z,988.4
2023-03-03T07:13:30.310Z,988.3
2023-03-03T07:15:31.588Z,988.4
2023-03-03T07:17:33.205Z,988.4
2023-03-03T07:19:34.538Z,988.4
2023-03-03T07:21:36.317Z,988.5
2023-03-03T07:23:37.600Z,988.4
2023-03-03T07:25:38.741Z,988.5
2023-03-03T07:27:39.852Z,988.5
2023-03-03T07:29:41.675Z,988.5
2023-03-03T07:31:45.606Z,988.4
2023-03-03T07:33:45.518Z,988.5
2023-03-03T07:35:47.437Z,988.4
2023-03-03T07:37:49.192Z,988.5
2023-03-03T07:39:50.987Z,988.5
2023-03-03T07:41:52.930Z,988.5
2023-03-03T07:43:54.297Z,988.4
2023-03-03T07:45:55.817Z,988.5
2023-03-03T07:47:57.537Z,988.4
2023-03-03T07:49:59.368Z,988.5
2023-03-03T07:52:00.790Z,988.5
2023-03-03T07:54:01.886Z,988.4
2023-03-03T07:56:03.141Z,988.5
2023-03-03T07:58:05.056Z,988.6
2023-03-03T08:00:06.362Z,988.7
2023-03-03T08:02:07.347Z,988.6
2023-03-03T08:04:09.571Z,988.7
2023-03-03T08:06:09.520Z,988.7
2023-03-03T08:08:10.987Z,988.8
2023-03-03T08:10:12.195Z,988.8
2023-03-03T08:12:13.793Z,988.7
2023-03-03T08:14:14.799Z,988.8
2023-03-03T08:16:15.972Z,988.8
2023-03-03T08:18:17.123Z,988.8
2023-03-03T08:20:18.308Z,988.7
2023-03-03T08:22:19.612Z,988.7
2023-03-03T08:24:20.983Z,988.7
2023-03-03T08:26:21.976Z,988.6
2023-03-03T08:28:23.722Z,988.8
2023-03-03T08:30:24.843Z,988.8
2023-03-03T08:34:27.480Z,988.8
2023-03-03T08:36:29.183Z,988.8
2023-03-03T08:38:30.313Z,988.9
2023-03-03T08:40:31.291Z,989
2023-03-03T08:42:32.810Z,988.9
2023-03-03T08:44:33.565Z,988.8
2023-03-03T08:46:35.767Z,988.7
2023-03-03T08:48:37.058Z,988.8
2023-03-03T08:50:38.864Z,988.9
2023-03-03T08:52:40.870Z,988.9
2023-03-03T08:54:42.109Z,988.9
2023-03-03T08:56:43.396Z,989
2023-03-03T08:58:52.923Z,988.9
2023-03-03T09:00:48.106Z,989
2023-03-03T09:02:46.831Z,988.9
2023-03-03T09:04:48.621Z,988.9
2023-03-03T09:06:50.506Z,988.9
2023-03-03T09:10:52.484Z,988.9
2023-03-03T09:12:54.007Z,988.9
2023-03-03T09:14:55.198Z,988.8
2023-03-03T09:16:56.382Z,988.8
2023-03-03T09:18:58.228Z,988.8
2023-03-03T09:20:59.212Z,988.9
2023-03-03T09:23:00.364Z,988.8
2023-03-03T09:25:01.915Z,988.9
2023-03-03T09:27:03.574Z,988.8
2023-03-03T09:29:04.625Z,989
2023-03-03T09:31:07.543Z,989
2023-03-03T09:33:08.103Z,989
2023-03-03T09:35:09.287Z,988.9
2023-03-03T09:37:13.806Z,988.9
2023-03-03T09:39:11.633Z,988.9
2023-03-03T09:41:12.941Z,988.9
2023-03-03T09:43:14.704Z,988.8
2023-03-03T09:45:16.345Z,988.9
2023-03-03T09:47:18.037Z,988.9
2023-03-03T09:49:19.140Z,988.9
2023-03-03T09:51:20.417Z,989
2023-03-03T09:53:21.439Z,989
2023-03-03T09:55:25.200Z,989
2023-03-03T09:59:26.263Z,989.1
2023-03-03T10:01:28.166Z,989.1
2023-03-03T10:03:29.606Z,989.1
2023-03-03T10:05:30.994Z,989.1
2023-03-03T10:07:32.480Z,989
2023-03-03T10:09:33.783Z,989
2023-03-03T10:11:35.577Z,989
2023-03-03T10:13:37.358Z,989
2023-03-03T10:15:38.769Z,989
2023-03-03T10:17:39.911Z,989
2023-03-03T10:19:41.529Z,989
2023-03-03T10:21:42.887Z,989
2023-03-03T10:23:44.273Z,989
2023-03-03T10:25:46.166Z,989
2023-03-03T10:27:47.500Z,989
2023-03-03T10:29:50.174Z,989
2023-03-03T10:31:51.668Z,989
2023-03-03T10:33:52.673Z,989
2023-03-03T10:36:06.128Z,989.1
2023-03-03T10:37:55.077Z,989
2023-03-03T10:41:58.331Z,988.9
2023-03-03T10:44:00.028Z,988.9
2023-03-03T10:46:01.328Z,989.1
2023-03-03T10:48:02.324Z,989
2023-03-03T10:50:03.580Z,989
2023-03-03T10:52:04.957Z,989.1
2023-03-03T10:54:06.150Z,989.1
2023-03-03T10:56:07.471Z,989.1
2023-03-03T10:58:17.741Z,989.1
2023-03-03T11:00:10.575Z,989.1
2023-03-03T11:02:11.449Z,989
2023-03-03T11:04:12.679Z,989
2023-03-03T11:06:14.439Z,989
2023-03-03T11:08:15.937Z,989
2023-03-03T11:10:16.986Z,989.1
2023-03-03T11:12:20.165Z,989.1
2023-03-03T11:14:20.213Z,989.1
2023-03-03T11:16:21.280Z,989.1
2023-03-03T11:18:25.369Z,989
2023-03-03T11:24:26.413Z,989.1
2023-03-03T11:26:27.595Z,989.1
2023-03-03T11:28:28.620Z,988.9
2023-03-03T11:30:29.510Z,989.1
2023-03-03T11:32:30.586Z,989
2023-03-03T11:34:32.442Z,989
2023-03-03T11:36:35.044Z,989
2023-03-03T11:38:34.901Z,989
2023-03-03T11:40:36.841Z,989
2023-03-03T11:42:37.812Z,989
2023-03-03T11:44:39.338Z,988.9
2023-03-03T11:46:41.003Z,988.9
2023-03-03T11:48:42.388Z,988.8
2023-03-03T11:50:43.410Z,988.9
2023-03-03T11:52:45.578Z,989
2023-03-03T11:54:47.358Z,989
2023-03-03T11:56:48.852Z,989
2023-03-03T11:58:49.822Z,988.9
2023-03-03T12:00:50.784Z,989
2023-03-03T12:02:52.420Z,988.9
2023-03-03T12:06:56.020Z,988.8
2023-03-03T12:08:57.010Z,988.8
2023-03-03T12:10:58.672Z,988.9
2023-03-03T12:13:00.454Z,988.9
2023-03-03T12:17:03.807Z,988.8
2023-03-03T12:19:05.216Z,988.7
2023-03-03T12:21:07.023Z,988.7
2023-03-03T12:23:08.525Z,988.7
2023-03-03T12:25:10.102Z,988.7
2023-03-03T12:27:11.733Z,988.7
2023-03-03T12:29:12.935Z,988.6
2023-03-03T12:31:14.112Z,988.7
2023-03-03T12:33:15.412Z,988.6
2023-03-03T12:35:16.617Z,988.6
2023-03-03T12:37:18.185Z,988.5
2023-03-03T12:39:32.630Z,988.6
2023-03-03T12:41:20.696Z,988.4
2023-03-03T12:43:21.938Z,988.5
2023-03-03T12:45:23.848Z,988.4
2023-03-03T12:47:24.759Z,988.4
2023-03-03T12:49:26.320Z,988.4
2023-03-03T12:51:27.658Z,988.3
2023-03-03T12:53:29.089Z,988.2
2023-03-03T12:54:12.880Z,988.2
2023-03-03T12:56:14.704Z,988.3
2023-03-03T13:00:17.642Z,988.2
2023-03-03T13:02:18.758Z,988.3
2023-03-03T13:04:20.311Z,988.2
2023-03-03T13:06:22.097Z,988.3
2023-03-03T13:08:23.539Z,988.2
2023-03-03T13:10:33.559Z,988.3
2023-03-03T13:12:26.164Z,988.2
2023-03-03T13:14:27.113Z,988.2
2023-03-03T13:16:40.222Z,988.2
2023-03-03T13:18:30.542Z,988.1
2023-03-03T13:20:32.414Z,988.2
2023-03-03T13:22:33.759Z,988.2
2023-03-03T13:24:35.184Z,987.9
2023-03-03T13:26:37.042Z,988.2
2023-03-03T13:28:38.026Z,988.2
2023-03-03T13:30:39.141Z,988.2
2023-03-03T13:32:42.719Z,988.2
2023-03-03T13:34:41.266Z,988.2
2023-03-03T13:36:43.077Z,988.1
2023-03-03T13:38:44.786Z,988.1
2023-03-03T13:40:45.696Z,988
2023-03-03T13:42:47.465Z,988.1
2023-03-03T13:44:48.760Z,988.2
2023-03-03T13:46:49.820Z,988
2023-03-03T13:48:51.486Z,987.9
2023-03-03T13:50:52.396Z,987.9
2023-03-03T13:52:53.331Z,988
2023-03-03T13:54:54.489Z,987.7
2023-03-03T13:58:56.989Z,988
2023-03-03T14:00:57.932Z,987.7
2023-03-03T14:02:59.179Z,987.8
2023-03-03T14:05:00.051Z,987.7
2023-03-03T14:07:00.958Z,987.8
2023-03-03T14:09:02.082Z,987.7
2023-03-03T14:11:02.963Z,987.7
2023-03-03T14:13:04.912Z,987.6
2023-03-03T14:15:06.115Z,987.7
2023-03-03T14:17:07.573Z,987.6
2023-03-03T14:19:09.168Z,987.6
2023-03-03T14:21:10.341Z,987.6
2023-03-03T14:25:14.429Z,987.6
2023-03-03T14:27:16.100Z,987.6
2023-03-03T14:29:17.867Z,987.6
2023-03-03T14:31:18.897Z,987.7
2023-03-03T14:35:21.447Z,987.5
2023-03-03T14:37:22.672Z,987.7
2023-03-03T14:39:23.730Z,987.7
2023-03-03T14:41:25.504Z,987.8
2023-03-03T14:43:27.107Z,987.5
2023-03-03T14:45:30.203Z,987.7
2023-03-03T14:47:28.967Z,987.5
2023-03-03T14:49:30.102Z,987.7
2023-03-03T14:51:31.767Z,987.7
2023-03-03T14:53:33.200Z,987.6
2023-03-03T14:55:34.781Z,987.6
2023-03-03T14:57:35.970Z,987.7
2023-03-03T14:59:37.142Z,987.6
2023-03-03T15:01:38.522Z,987.6
2023-03-03T15:03:39.788Z,987.7
2023-03-03T15:05:41.420Z,987.6
2023-03-03T15:07:44.138Z,987.6
2023-03-03T15:09:45.030Z,987.6
2023-03-03T15:11:46.419Z,987.5
2023-03-03T15:13:47.536Z,987.6
2023-03-03T15:15:48.890Z,987.5
2023-03-03T15:17:50.324Z,987.6
2023-03-03T15:19:51.546Z,987.6
2023-03-03T15:21:52.466Z,987.5
2023-03-03T15:23:53.993Z,987.7
2023-03-03T15:25:57.690Z,987.5
2023-03-03T15:27:56.492Z,987.6
2023-03-03T15:29:58.068Z,987.5
2023-03-03T15:31:59.679Z,987.6
2023-03-03T15:34:01.138Z,987.6
2023-03-03T15:36:02.451Z,987.6
2023-03-03T15:40:05.087Z,987.6
2023-03-03T15:42:06.693Z,987.5
2023-03-03T15:44:07.845Z,987.6
2023-03-03T15:46:09.173Z,987.7
2023-03-03T15:48:10.886Z,987.7
2023-03-03T15:50:12.256Z,987.7
2023-03-03T15:52:13.932Z,987.7
2023-03-03T15:54:14.851Z,987.6
2023-03-03T15:56:16.499Z,987.6
2023-03-03T15:58:18.174Z,987.5
2023-03-03T16:00:20.077Z,987.6
2023-03-03T16:02:21.942Z,987.6
2023-03-03T16:04:22.899Z,987.5
2023-03-03T16:06:24.222Z,987.5
2023-03-03T16:08:25.349Z,987.7
2023-03-03T16:10:27.050Z,987.7
2023-03-03T16:12:28.897Z,987.7
2023-03-03T16:14:30.481Z,987.7
2023-03-03T16:16:31.617Z,987.7
2023-03-03T16:18:32.668Z,987.8
2023-03-03T16:20:34.157Z,987.8
2023-03-03T16:22:35.978Z,987.7
2023-03-03T16:24:38.006Z,987.7
2023-03-03T16:26:39.301Z,987.8
2023-03-03T16:28:40.941Z,987.7
2023-03-03T16:30:42.390Z,987.9
2023-03-03T16:32:43.909Z,987.8
2023-03-03T16:34:45.649Z,987.8
2023-03-03T16:36:46.734Z,987.9
2023-03-03T16:38:48.181Z,987.8
2023-03-03T16:40:49.282Z,987.9
2023-03-03T16:42:51.115Z,988
2023-03-03T16:44:52.108Z,988
2023-03-03T16:48:54.923Z,988.1
2023-03-03T16:50:56.318Z,988
2023-03-03T16:52:58.199Z,988.1
2023-03-03T16:55:00.277Z,988.1
2023-03-03T16:59:03.278Z,988.2
2023-03-03T17:01:04.765Z,988.2
2023-03-03T17:03:06.330Z,988.2
2023-03-03T17:05:08.035Z,988.3
2023-03-03T17:07:09.172Z,988.3
2023-03-03T17:09:11.750Z,988.3
2023-03-03T17:11:12.737Z,988.3
2023-03-03T17:13:13.330Z,988.3
2023-03-03T17:15:14.936Z,988.3
2023-03-03T17:21:19.913Z,988.4
2023-03-03T17:23:21.200Z,988.4
2023-03-03T17:25:22.388Z,988.4
2023-03-03T17:27:24.020Z,988.4
2023-03-03T17:29:25.554Z,988.4
2023-03-03T17:31:27.495Z,988.5
2023-03-03T17:33:28.718Z,988.5
2023-03-03T17:35:30.712Z,988.4
2023-03-03T17:37:32.304Z,988.5
2023-03-03T17:39:33.377Z,988.6
2023-03-03T17:41:35.357Z,988.6
2023-03-03T17:43:36.845Z,988.7
2023-03-03T17:45:38.443Z,988.6
2023-03-03T17:47:40.157Z,988.6
2023-03-03T17:49:42.013Z,988.7
2023-03-03T17:51:43.768Z,988.7
2023-03-03T17:53:45.604Z,988.7
2023-03-03T17:55:47.179Z,988.7
2023-03-03T17:57:48.418Z,988.8
2023-03-03T17:59:50.372Z,988.8
2023-03-03T18:01:51.765Z,988.8
2023-03-03T18:03:52.920Z,988.9
2023-03-03T18:05:54.769Z,988.9
2023-03-03T18:07:55.981Z,988.8
2023-03-03T18:09:57.474Z,988.8
2023-03-03T18:11:59.011Z,988.9
2023-03-03T18:14:01.019Z,988.9
2023-03-03T18:16:12.254Z,989
2023-03-03T18:18:03.889Z,989
2023-03-03T18:20:05.473Z,989
2023-03-03T18:22:07.541Z,989.1
2023-03-03T18:24:08.984Z,989.1
2023-03-03T18:26:10.256Z,989
2023-03-03T18:28:11.685Z,989.1
2023-03-03T18:30:13.006Z,989.1
2023-03-03T18:32:14.674Z,989.2
2023-03-03T18:34:16.985Z,989.2
2023-03-03T18:36:17.880Z,989.2
2023-03-03T18:38:19.148Z,989.2
2023-03-03T18:40:20.281Z,989.2
2023-03-03T18:42:21.331Z,989.2
2023-03-03T18:46:24.860Z,989.2
2023-03-03T18:48:25.918Z,989.2
2023-03-03T18:50:26.932Z,989.2
2023-03-03T18:52:28.346Z,989.2
2023-03-03T18:56:31.601Z,989.2
2023-03-03T18:58:33.654Z,989.2
2023-03-03T19:00:35.387Z,989.3
2023-03-03T19:02:36.904Z,989.3
2023-03-03T19:04:38.742Z,989.3
2023-03-03T19:06:40.124Z,989.3
2023-03-03T19:08:41.735Z,989.4
2023-03-03T19:10:43.639Z,989.3
2023-03-03T19:12:45.682Z,989.3
2023-03-03T19:14:47.232Z,989.3
2023-03-03T19:16:50.251Z,989.3
2023-03-03T19:18:50.706Z,989.3
2023-03-03T19:20:52.261Z,989.3
2023-03-03T19:22:53.858Z,989.4
2023-03-03T19:24:55.862Z,989.3
2023-03-03T19:28:58.680Z,989.4
2023-03-03T19:31:00.278Z,989.4
2023-03-03T19:33:01.333Z,989.4
2023-03-03T19:35:02.702Z,989.4
2023-03-03T19:39:05.593Z,989.4
2023-03-03T19:39:49.510Z,989.5
2023-03-03T19:43:52.750Z,989.5
2023-03-03T19:45:54.574Z,989.5
2023-03-03T19:47:56.222Z,989.4
2023-03-03T19:49:57.640Z,989.5
2023-03-03T19:51:58.835Z,989.5
2023-03-03T19:54:00.675Z,989.6
2023-03-03T19:56:01.982Z,989.5
2023-03-03T19:58:03.580Z,989.6
2023-03-03T20:00:05.026Z,989.6
2023-03-03T20:02:06.269Z,989.6
2023-03-03T20:04:07.496Z,989.6
2023-03-03T20:06:08.786Z,989.5
2023-03-03T20:08:10.389Z,989.6
2023-03-03T20:10:11.710Z,989.6
2023-03-03T20:12:13.493Z,989.6
2023-03-03T20:14:14.899Z,989.7
2023-03-03T20:16:16.072Z,989.7
2023-03-03T20:18:17.133Z,989.7
2023-03-03T20:22:19.860Z,989.9
2023-03-03T20:24:21.579Z,989.8
2023-03-03T20:26:23.148Z,989.9
2023-03-03T20:28:24.942Z,989.8
2023-03-03T20:30:26.704Z,989.9
2023-03-03T20:32:28.280Z,989.8
2023-03-03T20:34:29.471Z,989.9
2023-03-03T20:36:30.957Z,989.9
2023-03-03T20:38:32.318Z,989.9
2023-03-03T20:40:33.636Z,989.9
2023-03-03T20:42:35.102Z,989.9
2023-03-03T20:44:36.690Z,990
2023-03-03T20:46:38.589Z,990
2023-03-03T20:48:39.950Z,990.1
2023-03-03T20:50:41.477Z,990.1
2023-03-03T20:52:43.450Z,990.1
2023-03-03T20:54:44.595Z,990.1
2023-03-03T20:56:46.211Z,990.2
2023-03-03T20:58:47.330Z,990
2023-03-03T21:00:49.463Z,990
2023-03-03T21:02:51.158Z,990
2023-03-03T21:04:53.057Z,990
2023-03-03T21:06:54.705Z,990
2023-03-03T21:08:56.656Z,990
2023-03-03T21:10:58.729Z,990
2023-03-03T21:12:59.968Z,990.1
2023-03-03T21:15:01.860Z,990.1
2023-03-03T21:17:03.381Z,990.1
2023-03-03T21:19:05.381Z,990.1
2023-03-03T21:21:06.882Z,990.2
2023-03-03T21:23:08.566Z,990.1
2023-03-03T21:25:09.884Z,990.1
2023-03-03T21:27:10.992Z,990.1
2023-03-03T21:29:12.599Z,990.1
2023-03-03T21:31:14.392Z,990.2
2023-03-03T21:33:16.409Z,990.2
2023-03-03T21:35:18.355Z,990.2
2023-03-03T21:37:20.271Z,990.2
2023-03-03T21:39:21.960Z,990.2
2023-03-03T21:41:23.640Z,990.2
2023-03-03T21:43:25.246Z,990.2
2023-03-03T21:45:27.349Z,990.1
2023-03-03T21:47:29.071Z,990.1
2023-03-03T21:49:30.482Z,990.2
2023-03-03T21:51:31.581Z,990.2
2023-03-03T21:53:33.040Z,990.1
2023-03-03T21:55:34.530Z,990.1
2023-03-03T21:57:36.157Z,990
2023-03-03T21:59:37.274Z,990.1
2023-03-03T22:03:40.507Z,990.1
2023-03-03T22:05:42.288Z,990
2023-03-03T22:07:43.961Z,990.1
2023-03-03T22:09:45.431Z,990
2023-03-03T22:11:46.789Z,990.1
2023-03-03T22:13:48.817Z,990.2
2023-03-03T22:15:50.604Z,990.1
2023-03-03T22:17:52.785Z,990.1
2023-03-03T22:19:53.822Z,990.1
2023-03-03T22:21:55.627Z,990.2
2023-03-03T22:23:57.133Z,990.1
2023-03-03T22:25:59.041Z,990.2
2023-03-03T22:28:01.084Z,990.2
2023-03-03T22:30:03.610Z,990.2
2023-03-03T22:32:03.774Z,990.2
2023-03-03T22:34:04.878Z,990.2
2023-03-03T22:36:06.038Z,990.2
2023-03-03T22:38:07.571Z,990.3
2023-03-03T22:40:09.458Z,990.2
2023-03-03T22:42:11.602Z,990.3
2023-03-03T22:46:15.017Z,990.3
2023-03-03T22:48:16.600Z,990.3
2023-03-03T22:50:18.301Z,990.3
2023-03-03T22:52:19.402Z,990.3
2023-03-03T22:54:20.948Z,990.3
2023-03-03T22:56:22.268Z,990.4
2023-03-03T22:58:23.551Z,990.3
2023-03-03T23:00:25.560Z,990.3
2023-03-03T23:02:27.147Z,990.2
2023-03-03T23:04:28.300Z,990.4
2023-03-03T23:06:29.920Z,990.4
2023-03-03T23:08:31.686Z,990.3
2023-03-03T23:10:33.450Z,990.2
2023-03-03T23:12:35.092Z,990.3
2023-03-03T23:14:36.286Z,990.3
2023-03-03T23:16:37.955Z,990.3
2023-03-03T23:18:39.445Z,990.3
2023-03-03T23:20:41.147Z,990.4
2023-03-03T23:22:43.139Z,990.3
2023-03-03T23:24:45.194Z,990.4
2023-03-03T23:28:48.444Z,990.4
2023-03-03T23:30:52.060Z,990.4
2023-03-03T23:32:52.303Z,990.3
2023-03-03T23:34:53.896Z,990.4
2023-03-03T23:36:55.405Z,990.2
2023-03-03T23:38:56.786Z,990.2
2023-03-03T23:40:58.804Z,990.3
2023-03-03T23:42:59.945Z,990.3
2023-03-03T23:45:01.125Z,990.3
2023-03-03T23:47:02.458Z,990.4
2023-03-03T23:49:04.050Z,990.4
2023-03-03T23:51:05.156Z,990.4
2023-03-03T23:53:06.615Z,990.2
2023-03-03T23:55:08.507Z,990.4
2023-03-03T23:57:10.558Z,990.5
2023-03-03T23:59:12.549Z,990.5
